Terminal Aerodrome Forecast
Issued by NWS

Home | Current Version | Previous Version | Graphics & Text | Print | Product List | Glossary Off
Versions: 1 2 3 4 5 6 7 8 9 10 11 12 13 14 15 16 17 18

000
FTUS43 KBIS 202300
TAFDIK
TAF
KDIK 202337Z 2100/2124 25008KT P6SM SCT150
     FM211500 20009KT P6SM SCT090 BKN110
     FM212000 21012KT P6SM -SHRA SCT040 BKN060=

USA.gov is the U.S. government's official web portal to all federal, state and local government web resources and services.